Tropical Cyclones
[Index]
Main Index Home Page Stock Weather Photos Extreme Storms Discussion Storm News and Storm Chasing Reports Tropical Cyclones / Hurricanes / Typhoons Weather Data and Links Wild Fires / Bushfires Weather Observation Techniques Weather Picture Catalogue Tornado Pictures and Reports Stock Video Footage and DVDs for sale
Season 1974-1975 Tropical Cyclone GLORIA Track Map
Season 1974-1975 Summaries: [BoM-AU] [JTWC-AU] [JTWC-SIO] [JTWC-SPAC] [JTWC-SH]
<<- Previous TC | JTWC 1974-1975 Season | Next TC ->>

click for intensity scale information  Lat/long Grid: Show Hide

 Date Labels: Show Hide

Joint Typhoon Warning Centre Cyclone Data

Name: GLORIA
Number: 885 / 7513

14 Jan 1975 12:00 UTC to 22 Jan 1975 12:00 UTC

    date/time    lat    long     hPa   cat  kts
1975-01-14 12   13.0   147.0                              
1975-01-14 18   15.1   148.0                              
1975-01-15 00   16.6   148.6                              
1975-01-15 06   17.7   148.9                              
1975-01-15 12   18.1   149.1                              
1975-01-15 18   17.8   149.0                              
1975-01-16 00   17.5   148.9                              
1975-01-16 06   17.7   149.4                              
1975-01-16 12   18.0   150.0                              
1975-01-16 18   18.3   149.9                              
1975-01-17 00   18.7   150.1                              
1975-01-17 06   19.3   151.4                              
1975-01-17 12   20.0   152.7                              
1975-01-17 18   21.0   153.8                              
1975-01-18 00   22.0   155.0                              
1975-01-18 06   22.7   156.2                              
1975-01-18 12   23.3   157.4                              
1975-01-18 18   23.6   158.6                              
1975-01-19 00   24.0   160.0                              
1975-01-19 06   24.7   161.9                              
1975-01-19 12   25.4   164.1                              
1975-01-19 18   26.1   166.5                              
1975-01-20 00   26.6   168.6                              
1975-01-20 06   26.7   169.6                              
1975-01-20 12   26.8   170.4                              
1975-01-20 18   26.9   171.4                              
1975-01-21 00   27.0   172.6                              
1975-01-21 06   27.0   174.0                              
1975-01-21 12   26.8   175.6                              
1975-01-21 18   26.6   177.2                              
1975-01-22 00   26.4   179.0                              
1975-01-22 06   26.2   178.5W                             
1975-01-22 12   26.0   175.1W                             
Winds are 1-min average.

Tropical cyclone tracks developed by Michael Bath using data from the Joint Typhoon Warning Centre Best Tracks and Google Maps.


[Australian Severe Weather index] [Copyright Notice] [Email Contacts] [Search This Site] [Privacy Policy]
Document: tropical_cyclone_gloria.htm Updated: 18 September 2016